Etusivu
METAR-TAF:

METAR-TAF

Lentoasemat :

Tallinnan Lennart Meri -lentoasema

Tallinna, Viro

Leveyspiiri: 59-23N, Pituuspiiri: 024-35E, korkeus merenpinnasta: 44 m

Tämänhetkinen sää

Tämä raportti tehtiin 18 minuuttia sitten, kello 03.50 UTC
tyyntä
Lämpötila 8°C
Kosteus 61%
Ilmanpaine 1029 hPa
Näkyvyys 10 km tai enemmän
ei pilviä alle 1500 m:ssä eikä cumulonimbus-pilviä

METAR: EETN 230350Z 00000KT CAVOK 08/01 Q1029 NOSIG

Aika: 07:08 (04:08 UTC)

Sääennuste

Tämä raportti tehtiin 5 tuntia ja 8 minuuttia sitten, kello 23.00 UTC
Ennuste voimassa 23. päivästä klo 00 UTC - 23. päivään klo 24 UTC
Tuuli 6 kn lounaasta
Näkyvyys 10 km tai enemmän
ei pilviä alle 1500 m:ssä eikä cumulonimbus-pilviä
Tulossa
23. päivästä klo 09 UTC - 23. päivään klo 11 UTC
Tuuli 10 kn luoteesta
Tulossa
23. päivästä klo 17 UTC - 23. päivään klo 19 UTC
Tuuli 2 kn eri suunnista

TAF: EETN 222300Z 2300/2324 22006KT CAVOK BECMG 2309/2311 31010KT BECMG 2317/2319 VRB02KT

Säähavainnot ja -ennusteet yli 4000 lentoasemalta (METAR- ja TAF-raportit).

Käytössä olevat sääasemat on merkitty karttaan keltaisilla ja punaisilla pisteillä.

Aseta hiiri pisteen päälle nähdäksesi sääaseman nimen.

Klikkaa sitten nähdäksesi säähavainnot ja -ennusteet.

Kartan vaihtaminen: klikkaa mustalla rastilla varustettuja vihreitä pisteitä, niin voit zoomata sisään; viivalla varustettua vihreää pistettä, niin voit zoomata ulos tai vihreitä nuolia, niin pääset viereisille kartoille.


METAR-TAF: